Time;durP1;ratioP1;P1;durP2;ratioP2;P2;SDS_P1;SDS_P2;PMS_P1;PMS_P2;Temp;Humidity;BMP_temperature;BMP_pressure;BME280_temperature;BME280_humidity;BME280_pressure;Samples;Min_cycle;Max_cycle;Signal;HPM_P1;HPM_P2
2023/04/07 00:01:11;;;;;;;;;;;7.40;99.90;;;;;;5014267;28;209085;-72
2023/04/07 00:03:39;;;;;;;;;;;7.40;99.90;;;;;;5058573;28;20765;-72
2023/04/07 00:06:05;;;;;;;;;;;7.30;99.90;;;;;;4977604;28;209022;-73
2023/04/07 00:08:31;;;;;;;;;;;7.40;99.90;;;;;;5054034;28;20385;-74
2023/04/07 00:10:57;;;;;;;;;;;7.40;99.90;;;;;;5017813;28;89344;-74
2023/04/07 00:13:23;;;;;;;;;;;7.40;99.90;;;;;;5047594;28;19928;-73
2023/04/07 00:15:49;;;;;;;;;;;7.40;99.90;;;;;;5016578;28;172438;-72
2023/04/07 00:18:15;;;;;;;;;;;7.40;99.90;;;;;;5062218;28;20448;-72
2023/04/07 00:20:41;;;;;;;;;;;7.40;99.90;;;;;;5016900;28;210495;-71
2023/04/07 00:23:07;;;;;;;;;;;7.40;99.90;;;;;;5066389;28;20015;-72
2023/04/07 00:25:33;;;;;;;;;;;7.40;99.90;;;;;;5000074;28;210955;-71
2023/04/07 00:27:59;;;;;;;;;;;7.40;99.90;;;;;;5050012;28;20282;-71
2023/04/07 00:30:25;;;;;;;;;;;7.40;99.90;;;;;;4993384;28;206231;-69
2023/04/07 00:32:51;;;;;;;;;;;7.40;99.90;;;;;;5048880;28;19920;-69
2023/04/07 00:35:17;;;;;;;;;;;7.40;99.90;;;;;;5003975;28;214540;-71
2023/04/07 00:37:43;;;;;;;;;;;7.40;99.90;;;;;;5072062;28;19929;-71
2023/04/07 00:40:09;;;;;;;;;;;7.40;99.90;;;;;;5007525;28;209816;-70
2023/04/07 00:42:35;;;;;;;;;;;7.40;99.90;;;;;;5042291;28;19921;-71
2023/04/07 00:45:01;;;;;;;;;;;7.40;99.90;;;;;;5010396;28;209508;-71
2023/04/07 00:47:27;;;;;;;;;;;7.40;99.90;;;;;;5033463;28;19932;-69
2023/04/07 00:49:53;;;;;;;;;;;7.40;99.90;;;;;;5001409;28;209358;-70
2023/04/07 00:52:26;;;;;;;;;;;7.40;99.90;;;;;;5051268;28;19920;-71
2023/04/07 00:54:52;;;;;;;;;;;7.40;99.90;;;;;;4999533;28;210090;-70
2023/04/07 00:57:18;;;;;;;;;;;7.40;99.90;;;;;;5047473;28;19927;-70
2023/04/07 00:59:44;;;;;;;;;;;7.40;99.90;;;;;;5028467;28;215984;-70
2023/04/07 01:02:15;;;;;;;;;;;7.40;99.90;;;;;;5040919;28;261344;-70
2023/04/07 01:04:52;;;;;;;;;;;7.40;99.90;;;;;;5053134;28;212097;-70
2023/04/07 01:07:23;;;;;;;;;;;7.40;99.90;;;;;;4993620;28;19928;-70
2023/04/07 01:10:00;;;;;;;;;;;7.40;99.90;;;;;;5010688;28;242208;-70
2023/04/07 01:12:29;;;;;;;;;;;7.40;99.90;;;;;;5046442;28;19936;-71
2023/04/07 01:14:58;;;;;;;;;;;7.40;99.90;;;;;;5020276;28;210275;-70
2023/04/07 01:17:24;;;;;;;;;;;7.40;99.90;;;;;;5071135;28;19924;-71
2023/04/07 01:20:02;;;;;;;;;;;7.40;99.90;;;;;;5002666;28;215920;-70
2023/04/07 01:22:33;;;;;;;;;;;7.40;99.90;;;;;;5073158;28;19925;-70
2023/04/07 01:25:17;;;;;;;;;;;7.40;99.90;;;;;;5020587;28;212123;-70
2023/04/07 01:27:52;;;;;;;;;;;7.40;99.90;;;;;;5060220;28;19951;-70
2023/04/07 01:30:18;;;;;;;;;;;7.40;99.90;;;;;;4995121;28;206478;-70
2023/04/07 01:32:48;;;;;;;;;;;7.40;99.90;;;;;;5068505;28;19920;-70
2023/04/07 01:35:15;;;;;;;;;;;7.40;99.90;;;;;;5008012;28;209201;-70
2023/04/07 01:37:41;;;;;;;;;;;7.30;99.90;;;;;;5040401;28;19925;-70
2023/04/07 01:40:08;;;;;;;;;;;7.40;99.90;;;;;;5011402;28;248440;-69
2023/04/07 01:42:35;;;;;;;;;;;7.40;99.90;;;;;;5071532;28;20313;-70
2023/04/07 01:45:01;;;;;;;;;;;7.40;99.90;;;;;;5006910;28;206119;-70
2023/04/07 01:47:29;;;;;;;;;;;7.40;99.90;;;;;;5073102;28;19928;-71
2023/04/07 01:50:00;;;;;;;;;;;7.40;99.90;;;;;;5022967;28;207177;-69
2023/04/07 01:52:26;;;;;;;;;;;7.40;99.90;;;;;;5055175;28;19920;-70
2023/04/07 01:54:53;;;;;;;;;;;7.40;99.90;;;;;;5016581;28;208216;-70
2023/04/07 01:57:19;;;;;;;;;;;7.40;99.90;;;;;;5045907;28;20340;-71
2023/04/07 01:59:46;;;;;;;;;;;7.40;99.90;;;;;;5021057;28;213803;-68
2023/04/07 02:02:12;;;;;;;;;;;7.40;99.90;;;;;;5047240;28;20389;-69
2023/04/07 02:04:43;;;;;;;;;;;7.40;99.90;;;;;;5059491;28;19925;-70
2023/04/07 02:07:11;;;;;;;;;;;7.40;99.90;;;;;;4993733;28;19925;-71
2023/04/07 02:09:39;;;;;;;;;;;7.40;99.90;;;;;;5056220;28;19935;-71
2023/04/07 02:12:06;;;;;;;;;;;7.40;99.90;;;;;;4991289;28;206034;-70
2023/04/07 02:14:34;;;;;;;;;;;7.40;99.90;;;;;;5072183;28;19924;-70
2023/04/07 02:17:01;;;;;;;;;;;7.40;99.90;;;;;;4994639;28;208237;-70
2023/04/07 02:19:29;;;;;;;;;;;7.40;99.90;;;;;;5053470;28;19931;-71
2023/04/07 02:21:55;;;;;;;;;;;7.40;99.90;;;;;;4998551;28;211343;-71
2023/04/07 02:24:21;;;;;;;;;;;7.40;99.90;;;;;;5061491;28;19947;-71
2023/04/07 02:26:47;;;;;;;;;;;7.40;99.90;;;;;;5002568;28;204150;-71
2023/04/07 02:29:13;;;;;;;;;;;7.40;99.90;;;;;;5078692;28;19925;-71
2023/04/07 02:31:39;;;;;;;;;;;7.40;99.90;;;;;;5013986;28;206959;-71
2023/04/07 02:34:05;;;;;;;;;;;7.40;99.90;;;;;;5065571;28;19931;-72
2023/04/07 02:36:31;;;;;;;;;;;7.40;99.90;;;;;;5022239;28;206345;-72
2023/04/07 02:38:57;;;;;;;;;;;7.40;99.90;;;;;;5060027;28;20358;-71
2023/04/07 02:41:23;;;;;;;;;;;7.40;99.90;;;;;;5011412;28;209093;-71
2023/04/07 02:43:49;;;;;;;;;;;7.40;99.90;;;;;;5060429;28;19925;-71
2023/04/07 02:46:15;;;;;;;;;;;7.40;99.90;;;;;;5018675;28;62358;-71
2023/04/07 02:48:41;;;;;;;;;;;7.40;99.90;;;;;;5052217;28;19942;-72
2023/04/07 02:51:07;;;;;;;;;;;7.40;99.90;;;;;;5021935;28;194408;-71
2023/04/07 02:53:33;;;;;;;;;;;7.40;99.90;;;;;;5056369;28;21366;-71
2023/04/07 02:55:59;;;;;;;;;;;7.40;99.90;;;;;;4994566;28;222163;-71
2023/04/07 02:58:25;;;;;;;;;;;7.40;99.90;;;;;;5051555;28;19924;-72
2023/04/07 03:00:51;;;;;;;;;;;7.40;99.90;;;;;;5005875;28;209970;-70
2023/04/07 03:03:16;;;;;;;;;;;7.40;99.90;;;;;;5050051;28;19924;-69
2023/04/07 03:05:42;;;;;;;;;;;7.40;99.90;;;;;;4994773;28;207073;-70
2023/04/07 03:08:08;;;;;;;;;;;7.40;99.90;;;;;;5051909;28;20323;-69
2023/04/07 03:10:35;;;;;;;;;;;7.40;99.90;;;;;;5023626;28;204590;-70
2023/04/07 03:13:01;;;;;;;;;;;7.40;99.90;;;;;;5060331;28;19932;-69
2023/04/07 03:15:27;;;;;;;;;;;7.40;99.90;;;;;;4999525;28;206356;-70
2023/04/07 03:17:53;;;;;;;;;;;7.40;99.90;;;;;;5054023;28;19924;-71
2023/04/07 03:20:19;;;;;;;;;;;7.40;99.90;;;;;;5001841;28;208768;-70
2023/04/07 03:22:46;;;;;;;;;;;7.40;99.90;;;;;;5066704;28;19920;-70
2023/04/07 03:25:12;;;;;;;;;;;7.40;99.90;;;;;;5003014;28;210519;-71
2023/04/07 03:27:37;;;;;;;;;;;7.40;99.90;;;;;;5072156;28;20309;-70
2023/04/07 03:30:04;;;;;;;;;;;7.40;99.90;;;;;;5009167;28;205059;-70
2023/04/07 03:32:29;;;;;;;;;;;7.40;99.90;;;;;;5047643;28;19928;-69
2023/04/07 03:34:56;;;;;;;;;;;7.40;99.90;;;;;;5006520;28;213105;-72
2023/04/07 03:37:21;;;;;;;;;;;7.40;99.90;;;;;;5063709;28;19924;-70
2023/04/07 03:39:47;;;;;;;;;;;7.40;99.90;;;;;;5023363;28;251242;-70
2023/04/07 03:42:13;;;;;;;;;;;7.40;99.90;;;;;;5037273;28;123243;-70
2023/04/07 03:44:39;;;;;;;;;;;7.40;99.90;;;;;;5075638;28;20411;-70
2023/04/07 03:47:05;;;;;;;;;;;7.40;99.90;;;;;;5014664;28;213898;-69
2023/04/07 03:49:31;;;;;;;;;;;7.40;99.90;;;;;;5060979;28;21603;-71
2023/04/07 03:51:57;;;;;;;;;;;7.40;99.90;;;;;;4992621;28;205440;-71
2023/04/07 03:54:23;;;;;;;;;;;7.40;99.90;;;;;;5060767;28;19932;-69
2023/04/07 03:56:49;;;;;;;;;;;7.40;99.90;;;;;;5009088;28;204139;-70
2023/04/07 03:59:15;;;;;;;;;;;7.40;99.90;;;;;;5062942;28;19927;-69
2023/04/07 04:01:41;;;;;;;;;;;7.40;99.90;;;;;;4984945;28;206724;-70
2023/04/07 04:04:07;;;;;;;;;;;7.40;99.90;;;;;;5062821;28;20410;-70
2023/04/07 04:06:33;;;;;;;;;;;7.40;99.90;;;;;;4968290;28;210144;-70
2023/04/07 04:08:59;;;;;;;;;;;7.40;99.90;;;;;;5058133;28;19934;-70
2023/04/07 04:11:26;;;;;;;;;;;7.40;99.90;;;;;;4999150;28;216445;-69
2023/04/07 04:13:52;;;;;;;;;;;7.40;99.90;;;;;;5056905;28;19925;-71
2023/04/07 04:16:17;;;;;;;;;;;7.40;99.90;;;;;;5014804;28;222288;-71
2023/04/07 04:18:44;;;;;;;;;;;7.40;99.90;;;;;;5078265;28;19992;-70
2023/04/07 04:21:09;;;;;;;;;;;7.40;99.90;;;;;;5020752;28;220325;-68
2023/04/07 04:23:35;;;;;;;;;;;7.40;99.90;;;;;;5069573;28;20051;-70
2023/04/07 04:26:02;;;;;;;;;;;7.40;99.90;;;;;;5003290;28;219291;-71
2023/04/07 04:28:28;;;;;;;;;;;7.40;99.90;;;;;;5059526;28;19927;-70
2023/04/07 04:30:54;;;;;;;;;;;7.30;99.90;;;;;;5015839;28;206669;-70
2023/04/07 04:33:20;;;;;;;;;;;7.40;99.90;;;;;;5042820;28;19931;-71
2023/04/07 04:35:46;;;;;;;;;;;7.30;99.90;;;;;;4988821;28;213193;-71
2023/04/07 04:38:12;;;;;;;;;;;7.30;99.90;;;;;;5049973;28;20571;-71
2023/04/07 04:40:38;;;;;;;;;;;7.30;99.90;;;;;;5015018;28;110015;-71
2023/04/07 04:43:05;;;;;;;;;;;7.30;99.90;;;;;;5056462;28;19950;-70
2023/04/07 04:45:32;;;;;;;;;;;7.30;99.90;;;;;;5010951;28;262206;-72
2023/04/07 04:47:58;;;;;;;;;;;7.30;99.90;;;;;;5044172;28;19928;-72
2023/04/07 04:50:24;;;;;;;;;;;7.30;99.90;;;;;;5018906;28;204243;-73
2023/04/07 04:52:50;;;;;;;;;;;7.20;99.90;;;;;;5046134;28;19924;-73
2023/04/07 04:55:16;;;;;;;;;;;7.20;99.90;;;;;;5009216;28;173988;-71
2023/04/07 04:57:42;;;;;;;;;;;7.20;99.90;;;;;;5075512;28;19924;-72
2023/04/07 05:00:08;;;;;;;;;;;7.20;99.90;;;;;;5025319;28;210217;-71
2023/04/07 05:02:35;;;;;;;;;;;7.20;99.90;;;;;;5073365;28;19924;-71
2023/04/07 05:05:01;;;;;;;;;;;7.20;99.90;;;;;;4989537;28;209435;-71
2023/04/07 05:07:27;;;;;;;;;;;7.20;99.90;;;;;;5041712;28;19928;-73
2023/04/07 05:09:53;;;;;;;;;;;7.20;99.90;;;;;;5002185;28;208289;-72
2023/04/07 05:12:19;;;;;;;;;;;7.20;99.90;;;;;;5039891;28;20503;-73
2023/04/07 05:14:45;;;;;;;;;;;7.20;99.90;;;;;;5036462;28;208535;-73
2023/04/07 05:17:11;;;;;;;;;;;7.20;99.90;;;;;;5036908;28;19924;-72
2023/04/07 05:19:37;;;;;;;;;;;7.20;99.90;;;;;;5063939;28;19924;-72
2023/04/07 05:22:03;;;;;;;;;;;7.20;99.90;;;;;;5004357;28;213045;-71
2023/04/07 05:24:29;;;;;;;;;;;7.20;99.90;;;;;;5067434;28;19924;-71
2023/04/07 05:26:55;;;;;;;;;;;7.20;99.90;;;;;;5012994;28;167274;-73
2023/04/07 05:29:21;;;;;;;;;;;7.20;99.90;;;;;;5062362;28;19931;-72
2023/04/07 05:31:47;;;;;;;;;;;7.20;99.90;;;;;;5015141;28;207895;-70
2023/04/07 05:34:13;;;;;;;;;;;7.20;99.90;;;;;;5084551;28;19952;-72
2023/04/07 05:36:41;;;;;;;;;;;7.20;99.90;;;;;;5028079;28;211588;-71
2023/04/07 05:39:07;;;;;;;;;;;7.20;99.90;;;;;;5078102;28;19930;-71
2023/04/07 05:41:33;;;;;;;;;;;7.20;99.90;;;;;;5001200;28;208855;-73
2023/04/07 05:43:59;;;;;;;;;;;7.20;99.90;;;;;;5057881;28;20393;-74
2023/04/07 05:46:25;;;;;;;;;;;7.20;99.90;;;;;;5002725;28;214152;-72
2023/04/07 05:48:51;;;;;;;;;;;7.20;99.90;;;;;;5071507;28;19925;-71
2023/04/07 05:51:17;;;;;;;;;;;7.20;99.90;;;;;;5007948;28;208549;-71
2023/04/07 05:53:43;;;;;;;;;;;7.20;99.90;;;;;;5064030;28;19924;-70
2023/04/07 05:56:09;;;;;;;;;;;7.30;99.90;;;;;;5004314;28;206519;-71
2023/04/07 05:58:34;;;;;;;;;;;7.30;99.90;;;;;;5073659;28;19948;-70
2023/04/07 06:01:00;;;;;;;;;;;7.30;99.90;;;;;;5020869;28;215117;-69
2023/04/07 06:03:26;;;;;;;;;;;7.30;99.90;;;;;;5065169;28;20457;-71
2023/04/07 06:05:52;;;;;;;;;;;7.30;99.90;;;;;;4987869;28;218735;-71
2023/04/07 06:08:18;;;;;;;;;;;7.30;99.90;;;;;;5062381;28;20389;-70
2023/04/07 06:10:44;;;;;;;;;;;7.30;99.90;;;;;;5008598;28;215441;-70
2023/04/07 06:13:10;;;;;;;;;;;7.30;99.90;;;;;;5059959;28;20302;-70
2023/04/07 06:15:36;;;;;;;;;;;7.30;99.90;;;;;;5001173;28;210664;-70
2023/04/07 06:18:02;;;;;;;;;;;7.30;99.90;;;;;;5048754;28;19920;-71
2023/04/07 06:20:28;;;;;;;;;;;7.30;99.90;;;;;;5009898;28;209929;-70
2023/04/07 06:22:54;;;;;;;;;;;7.40;99.90;;;;;;5069795;28;20376;-71
2023/04/07 06:25:20;;;;;;;;;;;7.40;99.90;;;;;;5007643;28;121910;-70
2023/04/07 06:27:46;;;;;;;;;;;7.40;99.90;;;;;;5058986;28;19928;-69
2023/04/07 06:30:12;;;;;;;;;;;7.40;99.90;;;;;;5011390;28;210077;-69
2023/04/07 06:32:38;;;;;;;;;;;7.40;99.90;;;;;;5070432;28;19928;-71
2023/04/07 06:35:04;;;;;;;;;;;7.40;99.90;;;;;;5001177;28;214520;-71
2023/04/07 06:37:30;;;;;;;;;;;7.50;99.90;;;;;;5054490;28;20330;-70
2023/04/07 06:39:56;;;;;;;;;;;7.50;99.90;;;;;;5006207;28;209383;-70
2023/04/07 06:42:22;;;;;;;;;;;7.50;99.90;;;;;;5051333;28;19982;-71
2023/04/07 06:44:48;;;;;;;;;;;7.50;99.90;;;;;;5006281;28;209363;-70
2023/04/07 06:47:14;;;;;;;;;;;7.60;99.90;;;;;;5060640;28;20504;-69
2023/04/07 06:49:40;;;;;;;;;;;7.60;99.90;;;;;;5038809;28;210132;-71
2023/04/07 06:52:06;;;;;;;;;;;7.60;99.90;;;;;;5031817;28;71145;-69
2023/04/07 06:54:32;;;;;;;;;;;7.70;99.90;;;;;;5054312;28;19928;-69
2023/04/07 06:56:58;;;;;;;;;;;7.70;99.90;;;;;;4998273;28;215630;-69
2023/04/07 06:59:24;;;;;;;;;;;7.70;99.90;;;;;;5052814;28;19935;-71
2023/04/07 07:01:50;;;;;;;;;;;7.70;99.90;;;;;;4999450;28;207166;-69
2023/04/07 07:04:16;;;;;;;;;;;7.70;99.90;;;;;;5065639;28;19939;-69
2023/04/07 07:06:42;;;;;;;;;;;7.80;99.90;;;;;;4971997;28;209915;-69
2023/04/07 07:09:08;;;;;;;;;;;7.80;99.90;;;;;;5064201;28;20705;-70
2023/04/07 07:11:34;;;;;;;;;;;7.80;99.90;;;;;;5011554;28;255714;-70
2023/04/07 07:14:03;;;;;;;;;;;7.80;99.90;;;;;;5056646;28;19928;-69
2023/04/07 07:16:29;;;;;;;;;;;7.90;99.90;;;;;;5011941;28;208475;-70
2023/04/07 07:18:55;;;;;;;;;;;8.00;99.90;;;;;;5063377;28;19935;-69
2023/04/07 07:21:21;;;;;;;;;;;8.00;99.90;;;;;;5001005;28;219284;-69
2023/04/07 07:23:47;;;;;;;;;;;8.00;99.90;;;;;;5055562;28;19932;-69
2023/04/07 07:26:13;;;;;;;;;;;8.10;99.90;;;;;;4988933;28;207147;-68
2023/04/07 07:28:39;;;;;;;;;;;8.10;99.90;;;;;;5064567;28;19935;-68
2023/04/07 07:31:09;;;;;;;;;;;8.20;99.90;;;;;;4975527;28;210314;-69
2023/04/07 07:33:35;;;;;;;;;;;8.30;99.90;;;;;;5062061;28;19928;-68
2023/04/07 07:36:01;;;;;;;;;;;8.40;99.90;;;;;;5007151;28;207061;-69
2023/04/07 07:38:27;;;;;;;;;;;8.40;99.90;;;;;;5074121;28;20007;-68
2023/04/07 07:40:52;;;;;;;;;;;8.40;99.90;;;;;;5014365;28;208172;-68
2023/04/07 07:43:18;;;;;;;;;;;8.50;99.90;;;;;;5058418;28;20290;-68
2023/04/07 07:45:44;;;;;;;;;;;8.50;99.90;;;;;;5017555;28;222661;-69
2023/04/07 07:48:10;;;;;;;;;;;8.60;99.90;;;;;;5074078;28;22312;-68
2023/04/07 07:50:36;;;;;;;;;;;8.60;99.90;;;;;;5004128;28;211812;-67
2023/04/07 07:53:02;;;;;;;;;;;8.70;99.90;;;;;;5059795;28;19927;-67
2023/04/07 07:55:28;;;;;;;;;;;8.70;99.90;;;;;;4980958;28;209858;-68
2023/04/07 07:57:54;;;;;;;;;;;8.70;99.90;;;;;;5058353;28;19925;-68
2023/04/07 08:00:22;;;;;;;;;;;8.70;99.90;;;;;;5017035;28;208680;-67
2023/04/07 08:02:48;;;;;;;;;;;8.80;99.90;;;;;;5062830;28;19935;-67
2023/04/07 08:05:14;;;;;;;;;;;8.70;99.90;;;;;;4987808;28;231279;-69
2023/04/07 08:07:42;;;;;;;;;;;8.70;99.90;;;;;;5065346;28;19929;-70
2023/04/07 08:10:08;;;;;;;;;;;8.80;99.90;;;;;;5000693;28;212468;-69
2023/04/07 08:12:34;;;;;;;;;;;8.80;99.90;;;;;;5047782;28;20301;-68
2023/04/07 08:15:01;;;;;;;;;;;8.80;99.90;;;;;;5000884;28;212447;-68
2023/04/07 08:17:27;;;;;;;;;;;8.90;99.90;;;;;;5077521;28;19920;-68
2023/04/07 08:19:53;;;;;;;;;;;8.90;99.90;;;;;;5010548;28;214608;-66
2023/04/07 08:22:19;;;;;;;;;;;9.00;99.90;;;;;;5070106;28;20300;-68
2023/04/07 08:24:46;;;;;;;;;;;9.10;99.90;;;;;;5022256;28;207554;-68
2023/04/07 08:27:12;;;;;;;;;;;9.20;99.90;;;;;;5027075;28;20483;-67
2023/04/07 08:29:38;;;;;;;;;;;9.20;99.90;;;;;;5054880;28;20566;-67
2023/04/07 08:32:04;;;;;;;;;;;9.20;99.90;;;;;;4975868;28;148615;-67
2023/04/07 08:34:30;;;;;;;;;;;9.20;99.90;;;;;;5059936;28;20635;-68
2023/04/07 08:36:56;;;;;;;;;;;9.30;99.90;;;;;;4984078;28;213903;-68
2023/04/07 08:39:24;;;;;;;;;;;9.30;99.90;;;;;;5061983;28;19998;-68
2023/04/07 08:41:50;;;;;;;;;;;9.40;99.90;;;;;;4988782;28;210421;-67
2023/04/07 08:44:16;;;;;;;;;;;9.40;99.90;;;;;;5037613;28;19925;-66
2023/04/07 08:46:43;;;;;;;;;;;9.60;99.90;;;;;;5006499;28;209025;-69
2023/04/07 08:49:12;;;;;;;;;;;9.70;99.90;;;;;;5057662;28;19924;-67
2023/04/07 08:51:43;;;;;;;;;;;9.80;99.90;;;;;;5009248;28;214033;-68
2023/04/07 08:54:10;;;;;;;;;;;9.90;99.90;;;;;;5060457;28;19928;-68
2023/04/07 08:56:37;;;;;;;;;;;9.90;99.90;;;;;;5005198;28;201426;-68
2023/04/07 08:59:05;;;;;;;;;;;9.90;99.90;;;;;;5058294;28;19946;-68
2023/04/07 09:01:31;;;;;;;;;;;10.00;99.90;;;;;;5011630;28;223568;-69
2023/04/07 09:03:57;;;;;;;;;;;10.10;99.90;;;;;;5061566;28;20304;-68
2023/04/07 09:06:23;;;;;;;;;;;10.10;99.90;;;;;;4979233;28;201656;-68
2023/04/07 09:08:49;;;;;;;;;;;10.10;99.90;;;;;;5052888;28;20373;-68
2023/04/07 09:11:15;;;;;;;;;;;10.10;99.90;;;;;;5013382;28;209187;-67
2023/04/07 09:13:41;;;;;;;;;;;10.10;99.90;;;;;;5060934;28;19960;-68
2023/04/07 09:16:07;;;;;;;;;;;10.20;99.90;;;;;;5014974;28;208940;-68
2023/04/07 09:18:33;;;;;;;;;;;10.20;99.90;;;;;;5066196;28;20558;-68
2023/04/07 09:21:00;;;;;;;;;;;10.30;99.90;;;;;;5002446;28;209432;-69
2023/04/07 09:23:39;;;;;;;;;;;10.30;99.90;;;;;;5056388;28;19955;-68
2023/04/07 09:26:27;;;;;;;;;;;10.50;99.90;;;;;;5012840;28;207349;-67
2023/04/07 09:28:54;;;;;;;;;;;10.70;99.90;;;;;;5057708;28;19925;-68
2023/04/07 09:31:20;;;;;;;;;;;11.00;99.90;;;;;;5023809;28;207918;-68
2023/04/07 09:33:49;;;;;;;;;;;11.10;99.90;;;;;;5037956;28;19932;-68
2023/04/07 09:36:15;;;;;;;;;;;11.10;99.90;;;;;;5004734;28;209513;-71
2023/04/07 09:38:42;;;;;;;;;;;11.10;99.90;;;;;;5063449;28;20746;-69
2023/04/07 09:41:11;;;;;;;;;;;11.20;99.90;;;;;;4993789;28;217091;-69
2023/04/07 09:43:38;;;;;;;;;;;11.20;99.90;;;;;;5055939;28;19929;-68
2023/04/07 09:46:10;;;;;;;;;;;11.20;99.90;;;;;;5011285;28;206121;-69
2023/04/07 09:48:37;;;;;;;;;;;11.10;99.90;;;;;;5056279;28;19951;-69
2023/04/07 09:51:10;;;;;;;;;;;10.90;99.90;;;;;;4992845;28;213754;-69
2023/04/07 09:53:40;;;;;;;;;;;11.00;99.90;;;;;;5049788;28;19929;-69
2023/04/07 09:56:07;;;;;;;;;;;11.00;99.90;;;;;;4999616;28;209669;-68
2023/04/07 09:58:33;;;;;;;;;;;11.10;99.90;;;;;;5051709;28;19931;-69
2023/04/07 10:01:00;;;;;;;;;;;11.00;99.90;;;;;;5006812;28;207945;-70
2023/04/07 10:03:26;;;;;;;;;;;11.00;99.90;;;;;;5062150;28;19929;-69
2023/04/07 10:05:53;;;;;;;;;;;11.00;99.90;;;;;;4993896;28;207370;-68
2023/04/07 10:08:19;;;;;;;;;;;11.00;99.90;;;;;;5051513;28;20384;-69
2023/04/07 10:10:46;;;;;;;;;;;10.90;99.90;;;;;;5014851;28;211803;-69
2023/04/07 10:13:12;;;;;;;;;;;10.90;99.90;;;;;;5066042;28;20479;-68
2023/04/07 10:15:38;;;;;;;;;;;11.00;99.90;;;;;;5012087;28;209003;-69
2023/04/07 10:18:06;;;;;;;;;;;11.10;99.90;;;;;;5064440;28;19920;-68
2023/04/07 10:20:32;;;;;;;;;;;11.10;99.90;;;;;;4995538;28;250017;-68
2023/04/07 10:23:04;;;;;;;;;;;11.10;99.90;;;;;;5065226;28;20308;-68
2023/04/07 10:25:30;;;;;;;;;;;11.30;99.90;;;;;;4991131;28;227969;-68
2023/04/07 10:28:02;;;;;;;;;;;11.40;99.90;;;;;;5045710;28;19951;-69
2023/04/07 10:30:32;;;;;;;;;;;11.50;99.90;;;;;;5001022;28;216355;-69
2023/04/07 10:32:58;;;;;;;;;;;11.60;99.90;;;;;;5056033;28;19928;-69
2023/04/07 10:35:24;;;;;;;;;;;11.90;99.90;;;;;;4998903;28;36186;-69
2023/04/07 10:38:06;;;;;;;;;;;12.00;99.90;;;;;;5042888;28;19932;-70
2023/04/07 10:40:32;;;;;;;;;;;12.10;99.90;;;;;;5006625;28;206957;-70
2023/04/07 10:42:58;;;;;;;;;;;12.10;99.90;;;;;;5071004;28;20483;-68
2023/04/07 10:45:43;;;;;;;;;;;11.80;99.90;;;;;;5001070;28;208899;-69
2023/04/07 10:48:10;;;;;;;;;;;11.70;99.90;;;;;;5057891;28;19935;-69
2023/04/07 10:50:36;;;;;;;;;;;11.50;99.90;;;;;;5000516;28;222804;-70
2023/04/07 10:53:09;;;;;;;;;;;11.30;99.90;;;;;;5057249;28;19927;-77
2023/04/07 10:55:39;;;;;;;;;;;11.10;99.90;;;;;;4998881;28;206766;-70
2023/04/07 10:58:24;;;;;;;;;;;10.90;99.90;;;;;;5056086;28;21266;-70
2023/04/07 11:00:55;;;;;;;;;;;10.80;99.90;;;;;;5014786;28;212150;-72
2023/04/07 11:03:22;;;;;;;;;;;10.70;99.90;;;;;;5066951;28;20292;-73
2023/04/07 11:05:49;;;;;;;;;;;10.70;99.90;;;;;;4886045;28;2964058;-72
2023/04/07 11:08:30;;;;;;;;;;;10.70;99.90;;;;;;5057666;28;19947;-71
2023/04/07 11:10:56;;;;;;;;;;;10.70;99.90;;;;;;4993814;28;205667;-72
2023/04/07 11:13:22;;;;;;;;;;;10.70;99.90;;;;;;5049301;28;19920;-72
2023/04/07 11:15:49;;;;;;;;;;;10.70;99.90;;;;;;5009080;28;210322;-72
2023/04/07 11:18:19;;;;;;;;;;;10.70;99.90;;;;;;5057136;28;19931;-72
2023/04/07 11:20:45;;;;;;;;;;;10.70;99.90;;;;;;5006452;28;207369;-73
2023/04/07 11:23:12;;;;;;;;;;;10.70;99.90;;;;;;5051323;28;19920;-73
2023/04/07 11:25:40;;;;;;;;;;;10.80;99.90;;;;;;5003730;28;116696;-72
2023/04/07 11:28:09;;;;;;;;;;;10.80;99.90;;;;;;5050169;28;19929;-72
2023/04/07 11:30:35;;;;;;;;;;;10.80;99.90;;;;;;5007452;28;215002;-72
2023/04/07 11:33:01;;;;;;;;;;;10.90;99.90;;;;;;5044038;28;20112;-72
2023/04/07 11:35:27;;;;;;;;;;;11.20;99.90;;;;;;4996756;28;208623;-71
2023/04/07 11:38:00;;;;;;;;;;;11.30;99.90;;;;;;5054620;28;19921;-72
2023/04/07 11:40:33;;;;;;;;;;;11.40;99.90;;;;;;4997964;28;208845;-72
2023/04/07 11:43:00;;;;;;;;;;;11.40;99.90;;;;;;5048576;28;19932;-72
2023/04/07 11:45:26;;;;;;;;;;;11.40;99.90;;;;;;5004553;28;205734;-72
2023/04/07 11:47:52;;;;;;;;;;;11.30;99.90;;;;;;5060536;28;20324;-71
2023/04/07 11:50:37;;;;;;;;;;;11.20;99.90;;;;;;5010892;28;124156;-73
2023/04/07 11:53:03;;;;;;;;;;;11.20;99.90;;;;;;5049392;28;19928;-73
2023/04/07 11:55:29;;;;;;;;;;;11.20;99.90;;;;;;4999038;28;211066;-72
2023/04/07 11:58:04;;;;;;;;;;;11.10;99.90;;;;;;5071876;28;20024;-72
2023/04/07 12:00:30;;;;;;;;;;;11.00;99.90;;;;;;4988342;28;207635;-73
2023/04/07 12:03:07;;;;;;;;;;;11.00;99.90;;;;;;5048002;28;20364;-73
2023/04/07 12:05:45;;;;;;;;;;;11.10;99.90;;;;;;4966522;28;215602;-73
2023/04/07 12:08:12;;;;;;;;;;;11.30;99.90;;;;;;5055919;28;20594;-72
2023/04/07 12:10:40;;;;;;;;;;;11.50;99.90;;;;;;5004346;28;216285;-72
2023/04/07 12:13:07;;;;;;;;;;;11.60;99.90;;;;;;5066726;28;19928;-72
2023/04/07 12:15:33;;;;;;;;;;;11.80;99.90;;;;;;5031945;28;233262;-72
2023/04/07 12:17:59;;;;;;;;;;;12.00;99.90;;;;;;5061052;28;19961;-71
2023/04/07 12:20:26;;;;;;;;;;;12.30;99.90;;;;;;5004295;28;215107;-71
2023/04/07 12:22:52;;;;;;;;;;;12.70;99.90;;;;;;5042829;28;19924;-72
2023/04/07 12:25:18;;;;;;;;;;;13.10;99.90;;;;;;5004405;28;209523;-72
2023/04/07 12:27:44;;;;;;;;;;;13.40;99.90;;;;;;5069159;28;20369;-72
2023/04/07 12:30:11;;;;;;;;;;;13.70;99.90;;;;;;5005659;28;209993;-72
2023/04/07 12:32:37;;;;;;;;;;;13.50;99.90;;;;;;5048166;28;19927;-72
2023/04/07 12:35:04;;;;;;;;;;;13.50;99.90;;;;;;4991076;28;210057;-71
2023/04/07 12:37:30;;;;;;;;;;;13.60;99.90;;;;;;5067335;28;19936;-72
2023/04/07 12:39:56;;;;;;;;;;;13.70;99.90;;;;;;5000142;28;219316;-72
2023/04/07 12:42:22;;;;;;;;;;;13.70;99.90;;;;;;5069577;28;19930;-74
2023/04/07 12:44:48;;;;;;;;;;;13.70;99.90;;;;;;5008656;28;208774;-72
2023/04/07 12:47:14;;;;;;;;;;;13.70;99.90;;;;;;5057242;28;20411;-71
2023/04/07 12:49:40;;;;;;;;;;;13.60;99.90;;;;;;5046506;28;216072;-72
2023/04/07 12:52:06;;;;;;;;;;;13.70;99.90;;;;;;5021674;28;209713;-72
2023/04/07 12:54:32;;;;;;;;;;;13.90;99.90;;;;;;5062479;28;20023;-72
2023/04/07 12:56:58;;;;;;;;;;;13.90;99.90;;;;;;4997574;28;208825;-71
2023/04/07 12:59:24;;;;;;;;;;;13.80;99.90;;;;;;5067077;28;19942;-72
2023/04/07 13:01:51;;;;;;;;;;;13.70;99.90;;;;;;5020560;28;204065;-71
2023/04/07 13:04:17;;;;;;;;;;;13.80;99.90;;;;;;5053435;28;19928;-72
2023/04/07 13:06:43;;;;;;;;;;;14.00;99.90;;;;;;4989007;28;134020;-71
2023/04/07 13:09:09;;;;;;;;;;;14.20;99.90;;;;;;5057881;28;20423;-71
2023/04/07 13:11:35;;;;;;;;;;;14.60;99.90;;;;;;4982473;28;223994;-71
2023/04/07 13:14:01;;;;;;;;;;;15.00;99.90;;;;;;5055480;28;20262;-71
2023/04/07 13:16:27;;;;;;;;;;;15.30;99.90;;;;;;4981239;28;214055;-72
2023/04/07 13:18:53;;;;;;;;;;;15.40;99.90;;;;;;5056567;28;19956;-71
2023/04/07 13:21:20;;;;;;;;;;;15.30;99.90;;;;;;4982908;28;210736;-71
2023/04/07 13:23:47;;;;;;;;;;;15.40;99.90;;;;;;5061000;28;19928;-72
2023/04/07 13:26:13;;;;;;;;;;;15.60;99.90;;;;;;5014948;28;209317;-71
2023/04/07 13:28:39;;;;;;;;;;;15.60;99.90;;;;;;5058465;28;19931;-71
2023/04/07 13:31:06;;;;;;;;;;;15.50;99.90;;;;;;5007117;28;208158;-71
2023/04/07 13:33:32;;;;;;;;;;;15.30;99.90;;;;;;5052740;28;20020;-71
2023/04/07 13:35:58;;;;;;;;;;;15.00;99.90;;;;;;5011668;28;220734;-72
2023/04/07 13:38:24;;;;;;;;;;;15.00;99.90;;;;;;5058222;28;20373;-72
2023/04/07 13:40:50;;;;;;;;;;;15.00;99.90;;;;;;5013778;28;205954;-71
2023/04/07 13:43:17;;;;;;;;;;;14.90;99.90;;;;;;5060613;28;19924;-70
2023/04/07 13:45:43;;;;;;;;;;;15.00;99.90;;;;;;5005134;28;115179;-71
2023/04/07 13:48:09;;;;;;;;;;;14.90;99.90;;;;;;5067769;28;19932;-71
2023/04/07 13:50:35;;;;;;;;;;;14.90;99.90;;;;;;5010751;28;211388;-72
2023/04/07 13:53:01;;;;;;;;;;;14.90;99.90;;;;;;5057110;28;20420;-72
2023/04/07 13:55:27;;;;;;;;;;;14.80;99.90;;;;;;5009354;28;105954;-72
2023/04/07 13:57:53;;;;;;;;;;;14.80;99.90;;;;;;5056496;28;20343;-73
2023/04/07 14:00:19;;;;;;;;;;;14.90;99.90;;;;;;5003381;28;212347;-72
2023/04/07 14:02:47;;;;;;;;;;;15.10;99.90;;;;;;5057797;28;20751;-71
2023/04/07 14:05:13;;;;;;;;;;;15.10;99.90;;;;;;4978939;28;211439;-71
2023/04/07 14:07:39;;;;;;;;;;;15.00;99.90;;;;;;5040102;28;20297;-72
2023/04/07 14:10:05;;;;;;;;;;;15.10;99.90;;;;;;5011962;28;206999;-70
2023/04/07 14:12:31;;;;;;;;;;;15.10;99.90;;;;;;5054881;28;19928;-71
2023/04/07 14:14:57;;;;;;;;;;;15.10;99.90;;;;;;5013353;28;207785;-71
2023/04/07 14:17:23;;;;;;;;;;;15.00;99.90;;;;;;5060900;28;20381;-71